Time;durP1;ratioP1;P1;durP2;ratioP2;P2;SDS_P1;SDS_P2;PMS_P1;PMS_P2;Temp;Humidity;BMP_temperature;BMP_pressure;BME280_temperature;BME280_humidity;BME280_pressure;Samples;Min_cycle;Max_cycle;Signal;HPM_P1;HPM_P2
2023/01/20 00:00:59;;;;;;;20.50;13.30;;;;;;;-4.24;100.00;92113.44;2532791;23;20002;-83
2023/01/20 00:02:00;;;;;;;21.30;13.73;;;;;;;-4.09;100.00;92114.44;2545561;23;20507;-83
2023/01/20 00:03:01;;;;;;;19.60;13.68;;;;;;;-3.75;100.00;92117.94;2532677;23;20001;-83
2023/01/20 00:04:03;;;;;;;19.30;12.88;;;;;;;-3.70;100.00;92115.03;2508601;23;20102;-82
2023/01/20 00:05:04;;;;;;;16.77;12.48;;;;;;;-3.71;100.00;92118.00;2509030;23;20018;-84
2023/01/20 00:06:06;;;;;;;17.95;11.93;;;;;;;-3.78;100.00;92115.28;2520642;23;20002;-83
2023/01/20 00:07:07;;;;;;;17.58;12.10;;;;;;;-3.94;100.00;92112.81;2520710;23;20010;-85
2023/01/20 00:08:08;;;;;;;18.33;12.48;;;;;;;-4.04;100.00;92116.75;2532738;23;20006;-84
2023/01/20 00:09:13;;;;;;;19.60;12.23;;;;;;;-4.11;100.00;92111.44;2520623;23;20003;-83
2023/01/20 00:10:14;;;;;;;17.20;11.55;;;;;;;-4.18;100.00;92116.53;2510066;23;20007;-83
2023/01/20 00:11:15;;;;;;;17.02;12.75;;;;;;;-4.21;100.00;92119.84;2532974;23;20002;-83
2023/01/20 00:12:16;;;;;;;18.92;12.30;;;;;;;-4.24;100.00;92118.66;2532555;23;20104;-82
2023/01/20 00:13:17;;;;;;;18.75;12.63;;;;;;;-4.24;100.00;92113.44;2508695;23;20415;-83
2023/01/20 00:14:18;;;;;;;18.83;12.60;;;;;;;-4.29;100.00;92124.19;2508569;23;20018;-83
2023/01/20 00:15:19;;;;;;;20.75;13.75;;;;;;;-4.29;100.00;92124.19;2508585;23;20006;-83
2023/01/20 00:16:23;;;;;;;22.92;13.93;;;;;;;-4.28;100.00;92115.25;2520492;23;20485;-82
2023/01/20 00:17:25;;;;;;;21.90;13.73;;;;;;;-4.25;100.00;92124.25;2533524;23;20009;-82
2023/01/20 00:18:26;;;;;;;21.00;14.40;;;;;;;-4.23;100.00;92128.00;2520652;23;20006;-82
2023/01/20 00:19:27;;;;;;;24.00;15.48;;;;;;;-4.26;100.00;92130.53;2508445;23;20019;-83
2023/01/20 00:20:28;;;;;;;22.05;14.32;;;;;;;-4.22;100.00;92139.19;2520513;23;20031;-83
2023/01/20 00:21:28;;;;;;;21.52;14.65;;;;;;;-4.22;100.00;92132.09;2520330;23;20010;-83
2023/01/20 00:22:30;;;;;;;23.45;14.23;;;;;;;-4.20;100.00;92134.38;2532722;23;20402;-83
2023/01/20 00:23:31;;;;;;;16.83;11.38;;;;;;;-4.23;100.00;92128.00;2532472;23;20009;-83
2023/01/20 00:24:32;;;;;;;16.40;12.00;;;;;;;-4.21;100.00;92127.66;2508697;23;20443;-83
2023/01/20 00:25:36;;;;;;;17.80;11.75;;;;;;;-4.17;100.00;92133.66;2520506;23;20009;-83
2023/01/20 00:26:37;;;;;;;19.95;12.00;;;;;;;-4.15;100.00;92134.09;2532884;23;20073;-83
2023/01/20 00:27:38;;;;;;;14.77;10.65;;;;;;;-4.14;100.00;92146.03;2520449;23;20050;-83
2023/01/20 00:28:39;;;;;;;17.48;11.23;;;;;;;-4.18;100.00;92138.13;2520578;23;20014;-83
2023/01/20 00:29:48;;;;;;;15.88;11.35;;;;;;;-4.16;100.00;92140.41;2520123;23;20014;-82
2023/01/20 00:30:48;;;;;;;16.63;11.30;;;;;;;-4.15;100.00;92137.44;2523337;23;20014;-83
2023/01/20 00:31:49;;;;;;;16.52;11.43;;;;;;;-4.17;100.00;92134.44;2532514;23;20022;-83
2023/01/20 00:32:51;;;;;;;15.35;10.52;;;;;;;-4.17;100.00;92144.88;2520378;23;20038;-83
2023/01/20 00:33:54;;;;;;;17.63;11.95;;;;;;;-4.18;100.00;92148.56;2532455;23;20006;-83
2023/01/20 00:34:55;;;;;;;15.43;10.80;;;;;;;-4.18;100.00;92145.97;2544464;23;20012;-84
2023/01/20 00:35:56;;;;;;;17.60;12.25;;;;;;;-4.17;100.00;92144.88;2520561;23;20358;-83
2023/01/20 00:36:57;;;;;;;17.00;11.55;;;;;;;-4.20;100.00;92150.78;2508638;23;20415;-84
2023/01/20 00:37:58;;;;;;;15.20;11.18;;;;;;;-4.17;100.00;92149.31;2520686;23;20002;-83
2023/01/20 00:39:01;;;;;;;18.50;11.75;;;;;;;-4.19;100.00;92148.94;2520331;23;20009;-83
2023/01/20 00:40:03;;;;;;;15.68;11.27;;;;;;;-4.14;100.00;92149.38;2533594;23;20033;-83
2023/01/20 00:41:04;;;;;;;15.63;11.38;;;;;;;-4.12;100.00;92144.59;2544328;23;20064;-83
2023/01/20 00:42:05;;;;;;;18.27;12.13;;;;;;;-4.03;100.00;92149.59;2532139;23;20085;-83
2023/01/20 00:43:06;;;;;;;17.10;11.52;;;;;;;-4.15;100.00;92149.75;2520236;23;20006;-83
2023/01/20 00:44:07;;;;;;;18.10;11.23;;;;;;;-4.15;100.00;92153.09;2532430;23;20452;-83
2023/01/20 00:45:08;;;;;;;16.70;11.82;;;;;;;-4.12;100.00;92155.03;2544632;23;20013;-84
2023/01/20 00:46:10;;;;;;;19.42;11.18;;;;;;;-4.11;100.00;92153.16;2520356;23;20021;-83
2023/01/20 00:47:11;;;;;;;14.90;11.13;;;;;;;-4.17;100.00;92155.31;2520562;23;20006;-83
2023/01/20 00:48:12;;;;;;;18.50;11.77;;;;;;;-4.14;100.00;92156.47;2532426;23;20425;-83
2023/01/20 00:49:13;;;;;;;17.05;11.75;;;;;;;-4.16;100.00;92158.69;2520247;23;20013;-83
2023/01/20 00:50:14;;;;;;;17.00;12.40;;;;;;;-4.12;100.00;92157.63;2532673;23;20033;-83
2023/01/20 00:51:15;;;;;;;15.90;11.88;;;;;;;-4.08;100.00;92155.84;2532399;23;19998;-83
2023/01/20 00:52:17;;;;;;;16.63;11.95;;;;;;;-4.03;100.00;92161.88;2520006;23;20006;-84
2023/01/20 00:53:18;;;;;;;19.10;11.35;;;;;;;-4.06;100.00;92150.28;2508960;23;20013;-84
2023/01/20 00:54:19;;;;;;;15.02;11.23;;;;;;;-4.08;100.00;92168.91;2520413;23;20109;-83
2023/01/20 00:55:20;;;;;;;17.95;11.45;;;;;;;-4.15;100.00;92168.75;2520413;23;20069;-81
2023/01/20 00:56:21;;;;;;;17.27;11.20;;;;;;;-4.18;100.00;92164.22;2508871;23;20006;-82
2023/01/20 00:57:22;;;;;;;16.77;11.32;;;;;;;-4.21;100.00;92164.94;2520474;23;20437;-82
2023/01/20 00:58:23;;;;;;;19.95;12.13;;;;;;;-4.22;100.00;92160.81;2520360;23;20594;-84
2023/01/20 00:59:24;;;;;;;16.35;11.00;;;;;;;-4.20;100.00;92171.66;2544482;23;20029;-84
2023/01/20 01:00:25;;;;;;;17.13;11.25;;;;;;;-4.17;100.00;92165.75;2520164;23;20010;-83
2023/01/20 01:01:26;;;;;;;19.63;11.05;;;;;;;-4.02;100.00;92166.00;2520254;23;20080;-83
2023/01/20 01:02:38;;;;;;;16.13;11.20;;;;;;;-4.01;100.00;92164.88;2520436;23;20453;-82
2023/01/20 01:03:39;;;;;;;15.25;10.68;;;;;;;-3.96;100.00;92170.56;2512588;23;20018;-82
2023/01/20 01:04:40;;;;;;;16.83;10.05;;;;;;;-3.97;100.00;92173.53;2508446;23;20010;-84
2023/01/20 01:05:41;;;;;;;17.70;11.13;;;;;;;-4.12;100.00;92180.38;2532504;23;20009;-84
2023/01/20 01:06:42;;;;;;;15.30;10.98;;;;;;;-4.11;100.00;92176.66;2544525;23;20028;-84
2023/01/20 01:07:43;;;;;;;17.08;11.40;;;;;;;-4.11;100.00;92174.03;2532397;23;20179;-83
2023/01/20 01:08:44;;;;;;;16.08;10.70;;;;;;;-4.06;100.00;92181.59;2520465;23;20120;-82
2023/01/20 01:09:45;;;;;;;14.93;10.98;;;;;;;-4.08;100.00;92179.34;2532582;23;20033;-83
2023/01/20 01:10:46;;;;;;;21.73;11.18;;;;;;;-4.13;100.00;92171.75;2544751;23;20033;-82
2023/01/20 01:11:48;;;;;;;15.20;11.13;;;;;;;-4.11;100.00;92176.66;2532441;23;20010;-83
2023/01/20 01:12:49;;;;;;;17.25;10.68;;;;;;;-4.15;100.00;92173.22;2520194;23;20461;-84
2023/01/20 01:13:50;;;;;;;15.32;10.73;;;;;;;-4.15;100.00;92183.66;2519954;23;20081;-83
2023/01/20 01:14:50;;;;;;;17.73;11.93;;;;;;;-4.20;100.00;92183.94;2520301;23;20065;-83
2023/01/20 01:15:51;;;;;;;15.75;10.95;;;;;;;-4.22;100.00;92180.91;2532377;23;20016;-82
2023/01/20 01:16:52;;;;;;;16.73;11.57;;;;;;;-4.28;100.00;92180.47;2520267;23;20462;-82
2023/01/20 01:17:55;;;;;;;18.55;11.68;;;;;;;-4.25;100.00;92189.47;2532600;23;20077;-83
2023/01/20 01:18:56;;;;;;;15.23;10.77;;;;;;;-4.21;100.00;92179.84;2520004;23;20421;-82
2023/01/20 01:19:57;;;;;;;17.45;11.65;;;;;;;-4.23;100.00;92190.59;2508192;23;20073;-82
2023/01/20 01:20:58;;;;;;;16.90;11.02;;;;;;;-4.22;100.00;92186.88;2519940;23;20014;-82
2023/01/20 01:21:58;;;;;;;16.42;11.00;;;;;;;-4.19;100.00;92188.06;2532338;23;20006;-82
2023/01/20 01:22:59;;;;;;;16.05;11.30;;;;;;;-4.15;100.00;92191.50;2544575;23;20012;-82
2023/01/20 01:24:00;;;;;;;18.02;11.77;;;;;;;-4.19;100.00;92198.50;2532150;23;20037;-82
2023/01/20 01:25:01;;;;;;;15.82;11.60;;;;;;;-4.20;100.00;92189.91;2532253;23;20001;-82
2023/01/20 01:26:03;;;;;;;16.20;10.73;;;;;;;-4.14;100.00;92190.38;2531968;23;20477;-82
2023/01/20 01:27:04;;;;;;;14.98;10.75;;;;;;;-4.17;100.00;92191.84;2508735;23;20011;-82
2023/01/20 01:28:05;;;;;;;15.50;11.07;;;;;;;-4.10;100.00;92196.44;2508040;23;20033;-81
2023/01/20 01:29:06;;;;;;;15.50;10.52;;;;;;;-4.06;100.00;92192.03;2520224;23;20734;-81
2023/01/20 01:30:08;;;;;;;15.30;11.35;;;;;;;-4.05;100.00;92196.88;2532179;23;20030;-82
2023/01/20 01:31:09;;;;;;;14.45;10.23;;;;;;;-4.03;100.00;92193.94;2544747;23;19993;-81
2023/01/20 01:32:10;;;;;;;15.88;11.05;;;;;;;-4.12;100.00;92196.03;2520286;23;20481;-82
2023/01/20 01:33:12;;;;;;;15.30;11.02;;;;;;;-4.18;100.00;92203.38;2532296;23;20013;-82
2023/01/20 01:34:14;;;;;;;15.52;10.57;;;;;;;-4.23;100.00;92201.03;2544228;23;20004;-82
2023/01/20 01:35:15;;;;;;;16.02;11.40;;;;;;;-4.27;100.00;92199.47;2532474;23;20028;-82
2023/01/20 01:36:16;;;;;;;13.98;9.95;;;;;;;-4.31;100.00;92207.22;2520128;23;20011;-82
2023/01/20 01:37:17;;;;;;;15.35;9.88;;;;;;;-4.35;100.00;92206.41;2508304;23;20466;-82
2023/01/20 01:38:18;;;;;;;16.08;10.20;;;;;;;-4.34;100.00;92208.69;2508463;23;20010;-82
2023/01/20 01:39:19;;;;;;;13.88;9.93;;;;;;;-4.34;100.00;92203.47;2531910;23;20032;-81
2023/01/20 01:40:20;;;;;;;13.32;9.60;;;;;;;-4.30;100.00;92206.16;2532168;23;20020;-82
2023/01/20 01:41:21;;;;;;;13.63;9.77;;;;;;;-4.31;100.00;92207.22;2532272;23;20033;-82
2023/01/20 01:42:24;;;;;;;15.20;10.38;;;;;;;-4.31;100.00;92212.44;2520205;23;20093;-82
2023/01/20 01:43:30;;;;;;;14.82;10.25;;;;;;;-4.36;100.00;92220.53;2509534;23;20038;-82
2023/01/20 01:44:31;;;;;;;15.68;9.85;;;;;;;-4.36;100.00;92212.72;2510265;23;20010;-82
2023/01/20 01:45:32;;;;;;;15.30;9.73;;;;;;;-4.38;100.00;92207.84;2520399;23;20006;-82
2023/01/20 01:46:34;;;;;;;15.15;9.48;;;;;;;-4.39;100.00;92210.78;2532057;23;20002;-82
2023/01/20 01:47:43;;;;;;;11.68;8.88;;;;;;;-4.28;100.00;92214.38;2508229;23;20410;-82
2023/01/20 01:48:44;;;;;;;12.15;8.65;;;;;;;-4.14;100.00;92203.44;2533743;23;20006;-82
2023/01/20 01:49:46;;;;;;;16.10;9.40;;;;;;;-4.28;100.00;92211.75;2519994;23;20473;-82
2023/01/20 01:50:55;;;;;;;15.63;9.40;;;;;;;-4.33;100.00;92210.19;2508199;23;20011;-81
2023/01/20 01:52:04;;;;;;;15.18;9.43;;;;;;;-4.43;100.00;92218.56;2523133;23;20010;-82
2023/01/20 01:53:06;;;;;;;13.18;9.18;;;;;;;-4.36;100.00;92221.28;2533694;23;20041;-81
2023/01/20 01:54:14;;;;;;;12.18;8.23;;;;;;;-4.34;100.00;92215.75;2520102;23;20010;-82
2023/01/20 01:55:18;;;;;;;14.15;9.73;;;;;;;-4.35;100.00;92220.19;2521484;23;20105;-82
2023/01/20 01:56:21;;;;;;;15.90;10.02;;;;;;;-4.37;100.00;92219.03;2521277;23;20428;-82
2023/01/20 01:57:23;;;;;;;13.65;9.20;;;;;;;-4.36;100.00;92221.28;2520260;23;20054;-82
2023/01/20 01:58:31;;;;;;;16.00;9.90;;;;;;;-4.33;100.00;92212.03;2520501;23;20449;-82
2023/01/20 01:59:32;;;;;;;16.25;10.52;;;;;;;-4.24;100.00;92209.97;2521710;23;20006;-82
2023/01/20 02:00:33;;;;;;;14.63;10.32;;;;;;;-4.13;100.00;92208.28;2520446;23;20011;-82
2023/01/20 02:01:40;;;;;;;17.10;9.98;;;;;;;-4.06;100.00;92218.13;2532670;23;20028;-82
2023/01/20 02:02:43;;;;;;;16.02;10.20;;;;;;;-4.14;100.00;92221.69;2521099;23;20680;-82
2023/01/20 02:04:07;;;;;;;16.40;9.48;;;;;;;-4.19;100.00;92219.38;2519817;23;20061;-82
2023/01/20 02:05:09;;;;;;;15.98;10.07;;;;;;;-4.22;100.00;92218.19;2523738;23;20512;-82
2023/01/20 02:06:11;;;;;;;14.70;9.85;;;;;;;-4.23;100.00;92221.16;2519381;23;20093;-82
2023/01/20 02:07:17;;;;;;;17.38;10.82;;;;;;;-4.32;100.00;92216.16;2519730;23;20011;-82
2023/01/20 02:08:18;;;;;;;15.05;10.32;;;;;;;-4.34;100.00;92226.19;2521207;23;20502;-81
2023/01/20 02:09:19;;;;;;;14.30;9.85;;;;;;;-4.43;100.00;92220.44;2531304;23;20006;-82
2023/01/20 02:10:20;;;;;;;15.85;10.02;;;;;;;-4.40;100.00;92227.53;2519378;23;20357;-82
2023/01/20 02:11:21;;;;;;;15.73;10.65;;;;;;;-4.38;100.00;92225.38;2531275;23;20037;-81
2023/01/20 02:12:22;;;;;;;18.30;10.70;;;;;;;-4.35;100.00;92228.03;2531515;23;20088;-82
2023/01/20 02:13:24;;;;;;;15.70;10.82;;;;;;;-4.32;100.00;92234.41;2519397;23;20296;-82
2023/01/20 02:14:32;;;;;;;15.48;10.77;;;;;;;-4.28;100.00;92231.88;2520090;23;20002;-82
2023/01/20 02:15:44;;;;;;;17.13;11.20;;;;;;;-4.29;100.00;92231.13;2521645;23;20010;-82
2023/01/20 02:32:01;;;;;;;;;;;;;;;-4.28;100.00;92252.75;2577286;22;20020;-74
2023/01/20 02:36:27;;;;;;;;;;;;;;;;;;;;;
2023/01/20 02:38:17;;;;;;;21.52;14.52;;;;;;;-4.20;100.00;92249.94;2521663;23;20017;-76
2023/01/20 02:41:02;;;;;;;21.10;14.00;;;;;;;-4.25;100.00;92249.47;2535555;23;20017;-76
2023/01/20 02:45:27;;;;;;;19.80;13.05;;;;;;;-3.92;100.00;92256.75;2477356;23;20026;-77
2023/01/20 02:47:33;;;;;;;20.02;12.82;;;;;;;-4.07;100.00;92253.16;2556977;23;20402;-76
2023/01/20 02:51:48;;;;;;;21.23;12.50;;;;;;;-3.99;100.00;92251.44;2521134;23;20006;-75
2023/01/20 02:53:22;;;;;;;;;;;;;;;-4.03;100.00;92248.00;2506041;23;20010;-76
2023/01/20 02:57:41;;;;;;;;;;;;;;;;;;;;;
2023/01/20 02:59:40;;;;;;;24.05;13.38;;;;;;;-4.11;100.00;92258.28;2485798;23;20011;-76
2023/01/20 03:16:15;;;;;;;22.85;13.88;;;;;;;-4.50;100.00;92269.81;2419345;24;20333;-76
2023/01/20 03:28:57;;;;;;;;;;;;;;;;;;;;;
2023/01/20 03:31:23;;;;;;;20.55;13.05;;;;;;;-4.68;100.00;92285.09;2430562;24;20001;-76
2023/01/20 03:33:57;;;;;;;;;;;;;;;;;;;;;
2023/01/20 03:40:30;;;;;;;;;;;;;;;;;;;;;
2023/01/20 03:57:41;;;;;;;19.27;12.07;;;;;;;-5.74;100.00;92312.81;2432962;24;20021;-75
2023/01/20 04:13:27;;;;;;;16.00;11.02;;;;;;;-6.31;100.00;92332.88;2357100;25;21022;-76
2023/01/20 04:14:59;;;;;;;16.35;10.10;;;;;;;-6.35;100.00;92330.19;2354253;25;20444;-76
2023/01/20 04:17:08;;;;;;;17.02;10.98;;;;;;;-6.42;100.00;92334.41;2359693;25;20027;-76
2023/01/20 04:18:49;;;;;;;18.58;11.60;;;;;;;-6.44;100.00;92331.41;2410550;24;20772;-76
2023/01/20 04:20:18;;;;;;;20.10;12.00;;;;;;;-6.54;100.00;92340.41;2437896;24;20009;-76
2023/01/20 04:21:35;;;;;;;21.80;12.15;;;;;;;-6.48;100.00;92330.53;2446133;24;20415;-76
2023/01/20 04:23:41;;;;;;;16.58;12.38;;;;;;;-6.45;100.00;92333.25;2437933;24;20459;-75
2023/01/20 04:26:03;;;;;;;17.98;11.00;;;;;;;-6.54;100.00;92330.03;2444465;24;20411;-76
2023/01/20 04:27:15;;;;;;;18.25;11.38;;;;;;;-6.63;100.00;92337.94;2469285;23;20496;-75
2023/01/20 04:28:28;;;;;;;15.73;11.10;;;;;;;-6.54;100.00;92340.41;2450968;24;20513;-74
2023/01/20 04:31:10;;;;;;;18.73;12.25;;;;;;;-6.55;100.00;92345.94;2524024;23;20439;-73
2023/01/20 04:32:30;;;;;;;18.75;12.00;;;;;;;-6.65;100.00;92336.75;2556636;23;20451;-75
2023/01/20 04:34:57;;;;;;;;;;;;;;;;;;;;;
2023/01/20 04:47:25;;;;;;;16.20;9.18;;;;;;;-7.12;100.00;92350.94;2401357;24;20409;-75
2023/01/20 05:19:15;;;;;;;12.65;8.18;;;;;;;-7.44;100.00;92398.50;1998805;29;20428;-76
2023/01/20 05:21:09;;;;;;;;;;;;;;;;;;;;;
2023/01/20 05:23:44;;;;;;;14.43;8.70;;;;;;;-7.68;100.00;92412.13;2027917;28;20476;-76
2023/01/20 05:25:57;;;;;;;;;;;;;;;;;;;;;
2023/01/20 05:27:29;;;;;;;12.40;7.85;;;;;;;-7.69;100.00;92410.63;2047673;28;20454;-75
2023/01/20 05:28:33;;;;;;;14.82;8.75;;;;;;;-7.71;100.00;92410.97;2070788;28;20876;-75
2023/01/20 05:29:38;;;;;;;13.98;9.13;;;;;;;-7.72;100.00;92411.28;2062895;28;20468;-74
2023/01/20 05:30:59;;;;;;;12.80;8.40;;;;;;;-7.78;100.00;92415.88;2053297;28;20470;-75
2023/01/20 05:39:39;;;;;;;11.68;6.65;;;;;;;-7.73;100.00;92433.84;2040144;28;20416;-77
2023/01/20 05:41:50;;;;;;;13.55;7.60;;;;;;;-7.87;100.00;92435.97;2041336;28;20447;-76
2023/01/20 05:54:53;;;;;;;;;;;;;;;;;;;;;
2023/01/20 05:57:24;;;;;;;9.05;6.80;;;;;;;-8.34;100.00;92456.84;2059720;28;21095;-76
2023/01/20 05:59:55;;;;;;;10.23;6.80;;;;;;;-8.36;100.00;92462.38;2052139;28;20433;-75
2023/01/20 06:05:40;;;;;;;10.18;6.60;;;;;;;-8.22;100.00;92467.31;2032696;28;20465;-76
2023/01/20 06:12:43;;;;;;;9.38;5.88;;;;;;;-8.21;100.00;92479.22;2006971;29;20482;-75
2023/01/20 06:24:30;;;;;;;;;;;;;;;;;;;;;
2023/01/20 07:20:22;;;;;;;;;;;;;;;-6.93;100.00;92545.22;2589949;22;20111;-82
2023/01/20 07:21:24;;;;;;;25.88;11.50;;;;;;;-6.88;100.00;92541.66;2574499;23;19938;-81
2023/01/20 07:22:25;;;;;;;31.48;15.27;;;;;;;-6.91;100.00;92544.91;2555849;23;20082;-79
2023/01/20 07:23:26;;;;;;;35.63;17.73;;;;;;;-6.85;100.00;92541.78;2559287;23;20397;-79
2023/01/20 07:24:27;;;;;;;35.17;18.27;;;;;;;-6.88;100.00;92545.00;2547333;23;20016;-81
2023/01/20 07:25:29;;;;;;;39.10;18.83;;;;;;;-6.83;100.00;92551.84;2541449;23;20424;-80
2023/01/20 07:26:30;;;;;;;38.47;18.60;;;;;;;-6.83;100.00;92551.84;2541162;23;20437;-81
2023/01/20 07:27:31;;;;;;;31.63;16.75;;;;;;;-6.73;100.00;92548.06;2553486;23;20435;-80
2023/01/20 07:28:33;;;;;;;32.78;15.45;;;;;;;-6.73;100.00;92561.81;2540187;23;20421;-83
2023/01/20 07:29:34;;;;;;;25.52;14.05;;;;;;;-6.78;100.00;92554.22;2552694;23;20032;-81
2023/01/20 07:30:35;;;;;;;22.90;12.77;;;;;;;-6.72;100.00;92558.13;2551857;23;20408;-82
2023/01/20 07:31:36;;;;;;;17.83;9.98;;;;;;;-6.74;100.00;92556.97;2551943;23;20005;-80
2023/01/20 07:32:37;;;;;;;11.63;7.55;;;;;;;-6.69;100.00;92564.53;2551014;23;20005;-80
2023/01/20 07:33:38;;;;;;;11.00;7.10;;;;;;;-6.55;100.00;92564.25;2538104;23;20005;-80
2023/01/20 07:34:39;;;;;;;9.18;6.25;;;;;;;-6.39;100.00;92560.69;2538070;23;19998;-81
2023/01/20 07:35:40;;;;;;;7.05;5.47;;;;;;;-6.23;100.00;92563.44;2537439;23;20405;-80
2023/01/20 07:36:41;;;;;;;8.35;5.75;;;;;;;-6.01;100.00;92558.88;2537435;23;20001;-81
2023/01/20 07:37:42;;;;;;;7.38;4.97;;;;;;;-5.90;100.00;92570.34;2549262;23;20393;-81
2023/01/20 07:38:47;;;;;;;7.70;5.15;;;;;;;-5.82;100.00;92562.41;2549441;23;20005;-81
2023/01/20 07:39:48;;;;;;;9.82;5.68;;;;;;;-5.68;100.00;92562.06;2538532;23;19998;-81
2023/01/20 07:40:49;;;;;;;8.00;5.13;;;;;;;-5.47;100.00;92566.38;2549187;23;20401;-82
2023/01/20 07:41:52;;;;;;;6.18;5.28;;;;;;;-5.43;100.00;92569.84;2537312;23;20073;-84
2023/01/20 07:42:53;;;;;;;7.32;5.00;;;;;;;-5.24;100.00;92572.63;2549329;23;20409;-83
2023/01/20 07:43:55;;;;;;;8.10;5.72;;;;;;;-5.43;100.00;92572.47;2549010;23;20983;-81
2023/01/20 07:44:56;;;;;;;10.35;6.45;;;;;;;-5.56;100.00;92569.13;2561188;23;20005;-83
2023/01/20 07:46:01;;;;;;;14.35;7.20;;;;;;;-5.54;100.00;92573.97;2549464;23;20397;-82
2023/01/20 07:47:02;;;;;;;32.05;15.30;;;;;;;-5.49;100.00;92574.50;2539243;23;20006;-83
2023/01/20 07:48:04;;;;;;;28.67;12.75;;;;;;;-5.48;100.00;92568.25;2536867;23;20438;-83
2023/01/20 07:49:05;;;;;;;23.73;13.15;;;;;;;-5.49;100.00;92576.34;2539025;23;20009;-82
2023/01/20 07:50:09;;;;;;;17.00;9.90;;;;;;;-5.36;100.00;92580.44;2550357;23;20081;-81
2023/01/20 07:51:12;;;;;;;16.42;9.43;;;;;;;-5.38;100.00;92580.78;2539168;23;20411;-82
2023/01/20 07:52:13;;;;;;;13.10;7.18;;;;;;;-5.51;100.00;92586.34;2537463;23;20867;-83
2023/01/20 07:53:14;;;;;;;8.98;6.55;;;;;;;-5.36;100.00;92581.22;2537251;23;20013;-82
2023/01/20 07:54:14;;;;;;;8.50;6.40;;;;;;;-5.37;100.00;92582.31;2537561;23;20010;-84
2023/01/20 07:55:15;;;;;;;8.43;6.13;;;;;;;-5.39;100.00;92584.50;2549731;23;20037;-83
2023/01/20 07:56:25;;;;;;;8.65;6.63;;;;;;;-5.39;100.00;92583.72;2549518;23;20487;-84
2023/01/20 07:57:28;;;;;;;11.30;6.63;;;;;;;-5.37;100.00;92591.97;2540807;23;20006;-84
2023/01/20 07:58:29;;;;;;;8.07;5.80;;;;;;;-5.38;100.00;92593.06;2573874;23;20439;-84
2023/01/20 07:59:30;;;;;;;7.82;5.53;;;;;;;-5.19;100.00;92587.25;2548998;23;19998;-83
2023/01/20 08:00:31;;;;;;;8.23;5.32;;;;;;;-5.11;100.00;92594.94;2561404;23;20020;-83
2023/01/20 08:01:32;;;;;;;8.02;5.22;;;;;;;-5.14;100.00;92589.63;2537108;23;20438;-83
2023/01/20 08:02:37;;;;;;;9.32;5.95;;;;;;;-5.04;100.00;92594.38;2549143;23;20056;-83
2023/01/20 08:03:38;;;;;;;6.50;4.80;;;;;;;-4.69;100.00;92599.78;2550818;23;20092;-84
2023/01/20 08:04:39;;;;;;;7.80;3.80;;;;;;;-4.56;100.00;92593.44;2549252;23;20013;-84
2023/01/20 08:05:41;;;;;;;5.72;4.10;;;;;;;-4.42;100.00;92600.09;2549360;23;20009;-84
2023/01/20 08:06:42;;;;;;;5.95;4.07;;;;;;;-4.37;100.00;92594.63;2536962;23;20401;-84
2023/01/20 08:07:43;;;;;;;4.68;3.88;;;;;;;-4.51;100.00;92600.25;2536701;23;20417;-82
2023/01/20 08:08:44;;;;;;;7.25;4.32;;;;;;;-4.41;100.00;92594.53;2536842;23;20405;-83
2023/01/20 08:09:47;;;;;;;8.65;4.40;;;;;;;-4.43;100.00;92596.75;2536782;23;20622;-83
2023/01/20 08:10:53;;;;;;;6.00;4.18;;;;;;;-4.49;100.00;92594.69;2537450;23;20041;-84
2023/01/20 08:11:54;;;;;;;5.63;4.13;;;;;;;-4.46;100.00;92597.41;2551270;23;20405;-83
2023/01/20 08:12:56;;;;;;;7.05;4.40;;;;;;;-4.50;100.00;92595.78;2548767;23;20008;-82
2023/01/20 08:13:57;;;;;;;6.28;4.30;;;;;;;-4.64;100.00;92604.75;2537017;23;20006;-83
2023/01/20 08:14:58;;;;;;;13.10;7.80;;;;;;;-4.70;100.00;92603.47;2525046;23;20010;-83
2023/01/20 08:16:01;;;;;;;15.07;9.45;;;;;;;-4.72;100.00;92603.06;2524569;23;20041;-83
2023/01/20 08:17:02;;;;;;;14.95;9.18;;;;;;;-4.75;100.00;92603.72;2537226;23;20012;-83
2023/01/20 08:18:03;;;;;;;15.63;9.35;;;;;;;-4.83;100.00;92604.59;2548995;23;20025;-84
2023/01/20 08:19:04;;;;;;;16.30;9.07;;;;;;;-4.85;100.00;92604.19;2549008;23;20348;-84
2023/01/20 08:20:07;;;;;;;12.27;7.68;;;;;;;-4.86;100.00;92611.25;2560894;23;20068;-83
2023/01/20 08:21:23;;;;;;;9.90;6.00;;;;;;;-4.83;100.00;92609.81;2544218;23;20121;-84
2023/01/20 08:22:24;;;;;;;5.40;3.97;;;;;;;-4.83;100.00;92612.44;2539446;23;20014;-79
2023/01/20 08:23:25;;;;;;;10.10;4.47;;;;;;;-4.80;100.00;92617.00;2534640;23;20649;-81
2023/01/20 08:24:26;;;;;;;5.40;3.67;;;;;;;-4.81;100.00;92612.88;2546553;23;20336;-82
2023/01/20 08:25:27;;;;;;;4.60;3.78;;;;;;;-4.39;100.00;92615.06;2546087;23;20080;-80
2023/01/20 08:26:28;;;;;;;5.10;3.72;;;;;;;-4.20;100.00;92617.03;2533390;23;20033;-82
2023/01/20 08:27:29;;;;;;;5.28;3.40;;;;;;;-4.18;100.00;92620.81;2545447;23;20017;-82
2023/01/20 08:28:32;;;;;;;5.40;3.72;;;;;;;-4.09;100.00;92620.66;2532905;23;20029;-82
2023/01/20 08:29:34;;;;;;;4.97;3.75;;;;;;;-3.99;100.00;92614.97;2548413;23;20059;-83
2023/01/20 08:30:37;;;;;;;5.75;3.85;;;;;;;-4.17;100.00;92618.97;2547768;23;20010;-82
2023/01/20 08:31:45;;;;;;;5.93;3.55;;;;;;;-3.97;100.00;92622.44;2534325;23;20013;-84
2023/01/20 08:32:55;;;;;;;6.50;3.65;;;;;;;-4.08;100.00;92620.34;2537185;23;20511;-84
2023/01/20 08:33:56;;;;;;;6.53;3.97;;;;;;;-4.01;100.00;92619.75;2549590;23;20313;-82
2023/01/20 08:34:57;;;;;;;6.60;3.50;;;;;;;-4.07;100.00;92627.06;2559553;23;20009;-80
2023/01/20 08:36:13;;;;;;;4.20;3.55;;;;;;;-4.05;100.00;92629.34;2561459;23;20076;-81
2023/01/20 08:37:14;;;;;;;6.93;3.83;;;;;;;-3.94;100.00;92625.16;2572933;23;20066;-83
2023/01/20 08:38:15;;;;;;;4.97;3.40;;;;;;;-3.71;100.00;92624.56;2560075;23;20005;-81
2023/01/20 08:39:17;;;;;;;6.28;4.10;;;;;;;-3.84;100.00;92629.09;2535018;23;20021;-81
2023/01/20 08:40:19;;;;;;;5.57;3.70;;;;;;;-3.92;100.00;92630.03;2534819;23;20068;-81
2023/01/20 08:41:23;;;;;;;5.30;3.90;;;;;;;-3.89;100.00;92631.97;2534565;23;20041;-82
2023/01/20 08:42:24;;;;;;;6.57;4.18;;;;;;;-4.01;100.00;92634.66;2546784;23;20005;-81
2023/01/20 08:43:25;;;;;;;4.05;3.65;;;;;;;-3.80;100.00;92632.56;2533830;23;20431;-81
2023/01/20 08:44:26;;;;;;;9.10;4.10;;;;;;;-3.60;100.00;92631.53;2534288;23;20080;-81
2023/01/20 08:45:27;;;;;;;5.00;3.92;;;;;;;-3.66;100.00;92642.56;2534838;23;20081;-81
2023/01/20 08:46:28;;;;;;;4.85;3.88;;;;;;;-3.55;100.00;92648.81;2546678;23;20016;-82
2023/01/20 08:47:29;;;;;;;4.43;3.75;;;;;;;-3.63;100.00;92641.91;2545466;23;20201;-83
2023/01/20 08:48:30;;;;;;;6.18;3.95;;;;;;;-3.55;100.00;92641.72;2533694;23;20084;-82
2023/01/20 08:49:31;;;;;;;4.35;3.80;;;;;;;-3.52;100.00;92647.34;2545829;23;20032;-82
2023/01/20 08:50:32;;;;;;;6.85;3.95;;;;;;;-3.53;100.00;92641.38;2544733;23;20009;-81
2023/01/20 08:51:35;;;;;;;6.93;4.10;;;;;;;-3.43;100.00;92653.16;2532222;23;20040;-81
2023/01/20 08:52:36;;;;;;;5.80;4.10;;;;;;;-3.41;100.00;92650.97;2521028;23;20524;-83
2023/01/20 08:53:37;;;;;;;4.70;3.70;;;;;;;-3.41;100.00;92650.97;2532871;23;20116;-81
2023/01/20 08:54:38;;;;;;;5.70;3.83;;;;;;;-3.38;100.00;92651.06;2556840;23;20671;-82
2023/01/20 08:55:39;;;;;;;5.82;4.13;;;;;;;-3.25;100.00;92648.31;2544213;23;20002;-81
2023/01/20 08:56:40;;;;;;;6.70;4.25;;;;;;;-3.16;100.00;92639.22;2544313;23;20033;-83
2023/01/20 08:57:41;;;;;;;6.32;4.18;;;;;;;-3.18;100.00;92653.72;2556980;23;20092;-83
2023/01/20 08:58:43;;;;;;;8.93;5.10;;;;;;;-3.27;100.00;92656.50;2543778;23;20010;-82
2023/01/20 08:59:46;;;;;;;5.93;4.93;;;;;;;-3.18;100.00;92658.94;2533069;23;20009;-82
2023/01/20 09:00:47;;;;;;;7.88;4.75;;;;;;;-3.15;100.00;92656.41;2533169;23;20040;-82
2023/01/20 09:01:48;;;;;;;8.23;5.18;;;;;;;-3.18;100.00;92657.09;2532659;23;20448;-81
2023/01/20 09:02:49;;;;;;;10.15;4.07;;;;;;;-2.99;100.00;92664.19;2534323;23;20052;-82
2023/01/20 09:03:51;;;;;;;6.80;4.80;;;;;;;-3.08;100.00;92661.78;2546566;23;20013;-82
2023/01/20 09:04:53;;;;;;;7.63;3.83;;;;;;;-2.80;100.00;92660.88;2547558;23;20416;-81
2023/01/20 09:05:54;;;;;;;5.53;3.33;;;;;;;-2.78;100.00;92662.03;2558852;23;20423;-81
2023/01/20 09:06:55;;;;;;;5.85;3.40;;;;;;;-2.71;100.00;92664.06;2545880;23;20009;-82